createdAt,value
2019-02-28T00:02:14.998Z,26.57
2019-02-28T00:04:45.413Z,25.15
2019-02-28T00:07:17.912Z,26.40
2019-02-28T00:09:48.758Z,25.72
2019-02-28T00:12:19.192Z,26.07
2019-02-28T00:14:49.656Z,25.88
2019-02-28T00:17:20.087Z,24.77
2019-02-28T00:19:50.439Z,25.17
2019-02-28T00:22:20.892Z,26.55
2019-02-28T00:24:51.352Z,26.55
2019-02-28T00:27:22.172Z,25.95
2019-02-28T00:29:52.765Z,26.68
2019-02-28T00:32:24.811Z,26.35
2019-02-28T00:34:55.487Z,27.50
2019-02-28T00:37:25.898Z,25.60
2019-02-28T00:39:56.672Z,25.85
2019-02-28T00:42:26.974Z,26.93
2019-02-28T00:44:57.398Z,25.70
2019-02-28T00:47:28.308Z,26.73
2019-02-28T00:49:58.790Z,24.77
2019-02-28T00:52:29.184Z,27.05
2019-02-28T00:54:59.643Z,25.17
2019-02-28T00:57:31.098Z,26.02
2019-02-28T01:00:05.124Z,26.07
2019-02-28T01:02:33.828Z,25.50
2019-02-28T01:05:05.968Z,26.82
2019-02-28T01:07:36.672Z,26.33
2019-02-28T01:10:08.483Z,27.13
2019-02-28T01:12:38.861Z,27.40
2019-02-28T01:15:11.429Z,26.50
2019-02-28T01:17:41.964Z,27.95
2019-02-28T01:20:16.217Z,27.22
2019-02-28T01:22:45.554Z,26.80
2019-02-28T01:25:16.082Z,26.57
2019-02-28T01:27:46.603Z,27.50
2019-02-28T01:30:18.736Z,29.80
2019-02-28T01:32:51.003Z,33.00
2019-02-28T01:35:21.744Z,30.80
2019-02-28T01:37:52.982Z,31.65
2019-02-28T01:40:24.148Z,32.15
2019-02-28T01:42:55.586Z,33.73
2019-02-28T01:45:26.010Z,31.23
2019-02-28T01:47:57.882Z,31.20
2019-02-28T01:50:29.692Z,31.35
2019-02-28T01:53:00.337Z,30.52
2019-02-28T01:55:30.692Z,29.63
2019-02-28T01:58:01.012Z,31.35
2019-02-28T02:00:31.460Z,30.75
2019-02-28T02:03:01.928Z,30.08
2019-02-28T02:05:32.380Z,30.05
2019-02-28T02:08:06.541Z,32.17
2019-02-28T02:10:36.992Z,32.88
2019-02-28T02:13:07.418Z,32.30
2019-02-28T02:15:37.855Z,35.58
2019-02-28T02:18:10.015Z,33.20
2019-02-28T02:20:40.640Z,34.48
2019-02-28T02:23:12.045Z,35.25
2019-02-28T02:25:42.402Z,35.68
2019-02-28T02:28:12.936Z,31.55
2019-02-28T02:30:50.438Z,31.00
2019-02-28T02:33:15.709Z,26.85
2019-02-28T02:35:46.342Z,25.82
2019-02-28T02:38:16.760Z,25.23
2019-02-28T02:40:47.105Z,25.95
2019-02-28T02:43:21.893Z,27.48
2019-02-28T02:45:49.643Z,27.77
2019-02-28T02:48:20.608Z,26.77
2019-02-28T02:50:50.925Z,27.37
2019-02-28T02:53:21.905Z,25.90
2019-02-28T02:55:52.387Z,28.67
2019-02-28T02:58:26.886Z,28.75
2019-02-28T03:00:55.007Z,29.63
2019-02-28T03:03:25.303Z,31.27
2019-02-28T03:05:55.646Z,31.33
2019-02-28T03:08:25.999Z,33.20
2019-02-28T03:10:57.435Z,34.08
2019-02-28T03:13:28.636Z,33.63
2019-02-28T03:15:59.517Z,36.23
2019-02-28T03:18:30.866Z,35.20
2019-02-28T03:21:01.292Z,35.13
2019-02-28T03:23:37.924Z,33.73
2019-02-28T03:26:06.925Z,35.50
2019-02-28T03:28:36.419Z,36.75
2019-02-28T03:31:14.442Z,36.08
2019-02-28T03:33:38.848Z,36.03
2019-02-28T03:36:09.191Z,35.40
2019-02-28T03:38:39.629Z,34.83
2019-02-28T03:41:16.062Z,34.20
2019-02-28T03:43:43.990Z,33.53
2019-02-28T03:46:14.243Z,32.60
2019-02-28T03:48:45.402Z,31.27
2019-02-28T03:51:15.845Z,29.57
2019-02-28T03:53:46.971Z,29.20
2019-02-28T03:56:17.589Z,30.70
2019-02-28T03:58:49.676Z,30.95
2019-02-28T04:01:21.130Z,28.62
2019-02-28T04:03:51.560Z,29.18
2019-02-28T04:06:22.009Z,28.83
2019-02-28T04:08:52.447Z,30.20
2019-02-28T04:11:23.290Z,30.88
2019-02-28T04:13:56.086Z,30.32
2019-02-28T04:16:25.709Z,32.65
2019-02-28T04:18:57.168Z,32.60
2019-02-28T04:21:27.604Z,32.05
2019-02-28T04:23:58.088Z,31.90
2019-02-28T04:26:29.788Z,32.45
2019-02-28T04:29:00.617Z,31.80
2019-02-28T04:31:30.981Z,31.90
2019-02-28T04:36:21.831Z,36.80
2019-02-28T04:38:53.186Z,38.53
2019-02-28T04:41:24.045Z,38.30
2019-02-28T04:43:54.367Z,41.37
2019-02-28T04:46:24.796Z,39.95
2019-02-28T04:48:55.165Z,41.40
2019-02-28T04:51:25.896Z,40.90
2019-02-28T04:53:57.836Z,39.70
2019-02-28T04:56:28.247Z,42.10
2019-02-28T04:58:59.612Z,39.90
2019-02-28T05:01:30.885Z,38.20
2019-02-28T05:04:02.326Z,39.65
2019-02-28T05:06:33.406Z,39.08
2019-02-28T05:09:05.428Z,40.08
2019-02-28T05:11:36.016Z,40.25
2019-02-28T05:14:06.380Z,38.98
2019-02-28T05:16:36.843Z,38.05
2019-02-28T05:19:07.157Z,40.00
2019-02-28T05:21:37.531Z,39.65
2019-02-28T05:24:08.673Z,40.40
2019-02-28T05:26:39.240Z,41.90
2019-02-28T05:29:11.910Z,41.28
2019-02-28T05:31:41.861Z,43.75
2019-02-28T05:34:13.191Z,46.00
2019-02-28T05:39:10.972Z,44.88
2019-02-28T05:41:41.403Z,47.88
2019-02-28T05:44:11.849Z,41.83
2019-02-28T05:46:42.184Z,41.00
2019-02-28T05:49:12.515Z,40.92
2019-02-28T05:51:42.870Z,39.40
2019-02-28T05:54:16.962Z,38.20
2019-02-28T05:56:45.816Z,43.38
2019-02-28T05:59:16.158Z,40.28
2019-02-28T06:01:47.001Z,38.30
2019-02-28T06:04:18.183Z,37.13
2019-02-28T06:06:51.402Z,37.17
2019-02-28T06:09:21.619Z,35.98
2019-02-28T06:11:52.050Z,34.23
2019-02-28T06:14:26.687Z,34.70
2019-02-28T06:16:54.463Z,33.65
2019-02-28T06:19:24.851Z,33.98
2019-02-28T06:21:56.419Z,35.80
2019-02-28T06:24:27.523Z,38.90
2019-02-28T06:26:58.030Z,40.45
2019-02-28T06:29:28.512Z,42.17
2019-02-28T06:31:58.981Z,44.00
2019-02-28T06:34:29.388Z,42.10
2019-02-28T06:37:03.828Z,43.95
2019-02-28T06:39:33.929Z,44.35
2019-02-28T06:42:04.252Z,46.85
2019-02-28T06:44:34.595Z,46.90
2019-02-28T06:47:05.003Z,42.85
2019-02-28T06:49:40.905Z,41.90
2019-02-28T06:52:07.839Z,39.70
2019-02-28T06:54:39.924Z,34.45
2019-02-28T06:57:11.331Z,29.55
2019-02-28T06:59:41.684Z,25.45
2019-02-28T07:02:12.132Z,26.68
2019-02-28T07:04:45.481Z,26.85
2019-02-28T07:07:14.951Z,25.88
2019-02-28T07:09:45.489Z,26.00
2019-02-28T07:12:15.964Z,27.32
2019-02-28T07:14:49.333Z,26.62
2019-02-28T07:17:18.707Z,26.15
2019-02-28T07:19:49.140Z,28.42
2019-02-28T07:22:20.647Z,28.83
2019-02-28T07:24:51.134Z,29.57
2019-02-28T07:27:23.318Z,29.85
2019-02-28T07:29:53.654Z,28.60
2019-02-28T07:32:26.139Z,27.95
2019-02-28T07:34:58.232Z,29.37
2019-02-28T07:37:28.513Z,28.38
2019-02-28T07:39:58.914Z,27.22
2019-02-28T07:42:29.279Z,28.00
2019-02-28T07:44:59.723Z,27.20
2019-02-28T07:47:30.181Z,27.48
2019-02-28T07:50:00.622Z,30.32
2019-02-28T07:52:33.443Z,26.45
2019-02-28T07:56:03.782Z,27.15
2019-02-28T07:58:35.614Z,28.60
2019-02-28T08:01:06.168Z,28.92
2019-02-28T08:03:37.668Z,30.08
2019-02-28T08:06:08.201Z,29.95
2019-02-28T08:08:38.588Z,28.57
2019-02-28T08:11:09.079Z,29.27
2019-02-28T08:13:41.034Z,30.12
2019-02-28T08:16:11.353Z,26.77
2019-02-28T08:18:41.762Z,26.75
2019-02-28T08:21:12.361Z,27.65
2019-02-28T08:23:42.795Z,27.85
2019-02-28T08:26:15.454Z,28.65
2019-02-28T08:28:45.513Z,29.50
2019-02-28T08:31:16.021Z,31.45
2019-02-28T08:33:49.605Z,33.28
2019-02-28T08:36:20.382Z,33.48
2019-02-28T08:38:53.699Z,37.35
2019-02-28T08:41:25.715Z,37.75
2019-02-28T08:43:57.120Z,38.75
2019-02-28T08:46:27.595Z,39.35
2019-02-28T08:48:58.039Z,41.25
2019-02-28T08:51:31.030Z,39.03
2019-02-28T08:54:01.328Z,39.63
2019-02-28T08:56:32.308Z,41.30
2019-02-28T08:59:11.622Z,43.92
2019-02-28T09:01:40.122Z,41.58
2019-02-28T09:04:08.517Z,45.15
2019-02-28T09:06:41.082Z,46.88
2019-02-28T09:09:12.118Z,48.17
2019-02-28T09:11:42.604Z,47.80
2019-02-28T09:14:14.813Z,51.00
2019-02-28T09:16:47.400Z,52.03
2019-02-28T09:19:17.742Z,51.45
2019-02-28T09:21:49.341Z,50.08
2019-02-28T09:24:21.441Z,50.25
2019-02-28T09:26:51.941Z,50.28
2019-02-28T09:29:22.306Z,50.30
2019-02-28T09:31:52.800Z,51.18
2019-02-28T09:34:23.200Z,52.50
2019-02-28T09:36:56.683Z,53.50
2019-02-28T09:39:36.502Z,51.55
2019-02-28T09:42:07.840Z,52.73
2019-02-28T09:44:38.221Z,54.58
2019-02-28T09:47:11.666Z,53.73
2019-02-28T09:49:44.250Z,55.00
2019-02-28T09:52:13.799Z,54.38
2019-02-28T09:54:44.356Z,53.78
2019-02-28T09:57:15.402Z,52.88
2019-02-28T09:59:47.598Z,52.75
2019-02-28T10:02:18.092Z,52.50
2019-02-28T10:04:48.498Z,48.68
2019-02-28T10:07:19.052Z,50.00
2019-02-28T10:09:49.628Z,47.43
2019-02-28T10:12:20.868Z,50.75
2019-02-28T10:14:52.062Z,51.50
2019-02-28T10:17:25.731Z,53.00
2019-02-28T10:19:54.947Z,50.40
2019-02-28T10:22:25.397Z,50.38
2019-02-28T10:24:55.867Z,55.45
2019-02-28T10:27:27.692Z,55.08
2019-02-28T10:29:58.316Z,58.50
2019-02-28T10:32:28.709Z,63.80
2019-02-28T10:35:01.334Z,64.15
2019-02-28T10:37:32.112Z,66.02
2019-02-28T10:40:05.042Z,70.50
2019-02-28T10:42:36.961Z,69.17
2019-02-28T10:45:09.251Z,69.50
2019-02-28T10:47:39.667Z,67.53
2019-02-28T10:50:13.118Z,64.65
2019-02-28T10:52:43.622Z,59.88
2019-02-28T10:55:14.554Z,62.05
2019-02-28T10:57:45.168Z,62.83
2019-02-28T11:00:23.220Z,62.23
2019-02-28T11:02:57.413Z,60.10
2019-02-28T11:05:29.191Z,64.35
2019-02-28T11:08:00.435Z,63.02
2019-02-28T11:10:42.548Z,65.35
2019-02-28T11:13:14.506Z,63.23
2019-02-28T11:15:48.412Z,61.33
2019-02-28T11:18:17.700Z,61.88
2019-02-28T11:20:48.336Z,62.48
2019-02-28T11:23:19.557Z,61.05
2019-02-28T11:25:50.059Z,61.30
2019-02-28T11:28:20.776Z,57.83
2019-02-28T11:30:51.353Z,54.58
2019-02-28T11:33:22.873Z,53.73
2019-02-28T11:35:57.650Z,53.90
2019-02-28T11:38:26.228Z,52.85
2019-02-28T11:40:57.765Z,52.45
2019-02-28T11:43:28.362Z,52.70
2019-02-28T11:46:00.985Z,52.03
2019-02-28T11:48:31.405Z,55.30
2019-02-28T11:51:02.524Z,55.15
2019-02-28T11:53:32.983Z,56.02
2019-02-28T11:56:03.346Z,57.55
2019-02-28T11:58:34.104Z,56.80
2019-02-28T12:01:10.041Z,58.00
2019-02-28T12:03:38.116Z,56.42
2019-02-28T12:06:08.827Z,56.55
2019-02-28T12:08:41.517Z,56.77
2019-02-28T12:11:11.212Z,57.03
2019-02-28T12:13:41.631Z,57.10
2019-02-28T12:16:16.272Z,55.12
2019-02-28T12:18:47.967Z,57.85
2019-02-28T12:21:18.430Z,58.50
2019-02-28T12:23:48.758Z,60.70
2019-02-28T12:26:21.021Z,59.05
2019-02-28T12:28:51.235Z,57.23
2019-02-28T12:31:21.734Z,58.13
2019-02-28T12:33:53.353Z,57.25
2019-02-28T12:36:27.640Z,56.37
2019-02-28T12:38:59.325Z,56.88
2019-02-28T12:41:30.442Z,54.38
2019-02-28T12:44:00.887Z,53.63
2019-02-28T12:46:32.103Z,54.38
2019-02-28T12:49:03.242Z,54.18
2019-02-28T12:51:36.531Z,54.85
2019-02-28T12:54:06.174Z,51.55
2019-02-28T12:56:36.518Z,51.68
2019-02-28T12:59:09.918Z,51.20
2019-02-28T13:01:39.851Z,49.70
2019-02-28T13:04:10.216Z,49.70
2019-02-28T13:06:40.536Z,48.58
2019-02-28T13:09:13.596Z,50.08
2019-02-28T13:11:43.337Z,50.05
2019-02-28T13:14:14.055Z,46.92
2019-02-28T13:16:44.409Z,56.60
2019-02-28T13:19:16.408Z,57.33
2019-02-28T13:21:47.888Z,67.50
2019-02-28T13:24:18.450Z,65.70
2019-02-28T13:26:48.799Z,72.80
2019-02-28T13:29:19.175Z,72.67
2019-02-28T13:31:50.390Z,68.35
2019-02-28T13:34:20.755Z,64.60
2019-02-28T13:36:54.241Z,61.02
2019-02-28T13:39:23.321Z,63.28
2019-02-28T13:41:53.710Z,58.17
2019-02-28T13:44:24.023Z,61.88
2019-02-28T13:46:54.463Z,60.00
2019-02-28T13:49:25.324Z,68.52
2019-02-28T13:51:55.680Z,67.15
2019-02-28T13:54:27.016Z,67.32
2019-02-28T13:56:57.486Z,66.17
2019-02-28T13:59:28.561Z,67.40
2019-02-28T14:02:01.619Z,66.80
2019-02-28T14:04:31.967Z,66.92
2019-02-28T14:07:02.339Z,64.50
2019-02-28T14:09:33.694Z,63.17
2019-02-28T14:12:05.155Z,61.30
2019-02-28T14:14:35.484Z,64.40
2019-02-28T14:17:06.042Z,63.10
2019-02-28T14:19:36.781Z,60.40
2019-02-28T14:22:08.617Z,58.55
2019-02-28T14:24:39.312Z,57.70
2019-02-28T14:27:09.655Z,52.78
2019-02-28T14:29:43.027Z,52.90
2019-02-28T14:32:12.015Z,48.50
2019-02-28T14:34:43.340Z,49.98
2019-02-28T14:37:16.835Z,47.35
2019-02-28T14:39:46.031Z,46.65
2019-02-28T14:42:16.387Z,43.33
2019-02-28T14:44:46.687Z,44.65
2019-02-28T14:47:17.047Z,42.67
2019-02-28T14:49:47.378Z,44.00
2019-02-28T14:52:17.944Z,42.50
2019-02-28T14:54:48.246Z,43.85
2019-02-28T14:57:18.557Z,43.52
2019-02-28T14:59:48.880Z,43.10
2019-02-28T15:02:19.899Z,42.62
2019-02-28T15:04:50.242Z,40.15
2019-02-28T15:07:20.589Z,40.48
2019-02-28T15:09:50.904Z,36.45
2019-02-28T15:12:23.379Z,37.85
2019-02-28T15:14:53.521Z,35.70
2019-02-28T15:17:23.902Z,33.67
2019-02-28T15:19:57.063Z,35.70
2019-02-28T15:22:26.301Z,31.23
2019-02-28T15:24:56.661Z,32.10
2019-02-28T15:27:27.171Z,30.12
2019-02-28T15:29:58.909Z,31.12
2019-02-28T15:32:29.727Z,29.07
2019-02-28T15:35:01.525Z,28.90
2019-02-28T15:37:33.672Z,24.95
2019-02-28T15:40:06.244Z,25.10
2019-02-28T15:42:39.645Z,22.82
2019-02-28T15:45:09.761Z,22.73
2019-02-28T15:47:41.058Z,21.80
2019-02-28T15:50:13.619Z,21.27
2019-02-28T15:52:45.619Z,23.85
2019-02-28T15:55:16.343Z,22.02
2019-02-28T15:57:46.916Z,21.65
2019-02-28T16:00:22.111Z,19.48
2019-02-28T16:02:53.608Z,17.62
2019-02-28T16:05:24.317Z,17.32
2019-02-28T16:07:55.469Z,15.35
2019-02-28T16:10:31.800Z,15.10
2019-02-28T16:13:00.984Z,14.47
2019-02-28T16:15:31.800Z,13.98
2019-02-28T16:18:02.294Z,26.17
2019-02-28T16:20:33.000Z,11.40
2019-02-28T16:23:03.535Z,11.88
2019-02-28T16:25:34.614Z,11.65
2019-02-28T16:28:07.800Z,10.05
2019-02-28T16:30:38.970Z,9.60
2019-02-28T16:33:10.202Z,9.33
2019-02-28T16:35:40.708Z,9.45
2019-02-28T16:38:11.515Z,8.90
2019-02-28T16:40:42.956Z,9.13
2019-02-28T16:43:13.717Z,9.00
2019-02-28T16:45:47.715Z,7.83
2019-02-28T16:48:18.187Z,8.03
2019-02-28T16:50:50.623Z,8.88
2019-02-28T16:53:20.716Z,8.58
2019-02-28T16:55:51.447Z,8.48
2019-02-28T16:58:22.903Z,8.68
2019-02-28T17:00:54.505Z,8.98
2019-02-28T17:03:25.604Z,9.00
2019-02-28T17:05:58.486Z,9.80
2019-02-28T17:08:33.246Z,8.65
2019-02-28T17:11:04.570Z,9.08
2019-02-28T17:13:41.207Z,8.63
2019-02-28T17:16:24.421Z,9.60
2019-02-28T17:18:56.835Z,9.60
2019-02-28T17:21:27.020Z,9.28
2019-02-28T17:23:57.659Z,11.10
2019-02-28T17:26:51.496Z,9.93
2019-02-28T17:29:33.579Z,9.98
2019-02-28T17:32:04.372Z,9.65
2019-02-28T17:34:34.956Z,10.10
2019-02-28T17:37:05.644Z,10.20
2019-02-28T17:39:36.039Z,9.60
2019-02-28T17:42:08.754Z,9.83
2019-02-28T17:45:03.243Z,9.53
2019-02-28T17:48:39.055Z,10.50
2019-02-28T17:51:14.961Z,10.03
2019-02-28T17:54:20.856Z,10.50
2019-02-28T17:57:17.787Z,11.30
2019-02-28T17:59:59.842Z,11.38
2019-02-28T18:03:09.835Z,9.50
2019-02-28T18:06:18.408Z,9.20
2019-02-28T18:09:17.490Z,8.40
2019-02-28T18:12:15.134Z,9.13
2019-02-28T18:15:00.803Z,8.95
2019-02-28T18:18:05.404Z,9.88
2019-02-28T18:20:47.113Z,9.85
2019-02-28T18:23:31.577Z,8.88
2019-02-28T18:26:46.433Z,8.98
2019-02-28T18:30:09.132Z,9.45
2019-02-28T18:32:38.364Z,9.88
2019-02-28T18:35:09.119Z,10.03
2019-02-28T18:37:39.620Z,10.03
2019-02-28T18:40:10.506Z,9.83
2019-02-28T18:42:42.381Z,9.28
2019-02-28T18:45:24.280Z,9.65
2019-02-28T18:47:54.702Z,9.73
2019-02-28T18:50:25.349Z,9.03
2019-02-28T18:52:56.941Z,8.43
2019-02-28T18:55:34.717Z,8.40
2019-02-28T18:58:01.360Z,8.78
2019-02-28T19:00:32.068Z,8.90
2019-02-28T19:03:05.714Z,9.78
2019-02-28T19:05:39.745Z,9.38
2019-02-28T19:08:10.325Z,9.88
2019-02-28T19:10:40.760Z,9.90
2019-02-28T19:13:11.264Z,9.30
2019-02-28T19:15:42.711Z,14.10
2019-02-28T19:18:13.111Z,11.05
2019-02-28T19:20:43.696Z,10.88
2019-02-28T19:23:14.245Z,10.78
2019-02-28T19:25:44.579Z,11.43
2019-02-28T19:28:15.042Z,12.35
2019-02-28T19:30:45.436Z,13.25
2019-02-28T19:33:15.907Z,17.50
2019-02-28T19:35:46.496Z,15.38
2019-02-28T19:38:16.892Z,11.73
2019-02-28T19:40:47.248Z,13.98
2019-02-28T19:43:19.295Z,11.60
2019-02-28T19:45:49.918Z,13.48
2019-02-28T19:48:20.453Z,11.00
2019-02-28T19:50:50.983Z,11.75
2019-02-28T19:53:21.440Z,11.65
2019-02-28T19:55:51.854Z,10.80
2019-02-28T19:58:23.007Z,10.70
2019-02-28T20:00:53.489Z,11.60
2019-02-28T20:03:26.403Z,9.73
2019-02-28T20:05:56.953Z,11.93
2019-02-28T20:08:27.380Z,10.55
2019-02-28T20:10:58.164Z,11.95
2019-02-28T20:13:28.700Z,11.57
2019-02-28T20:15:59.991Z,11.30
2019-02-28T20:18:30.587Z,10.80
2019-02-28T20:21:00.915Z,11.12
2019-02-28T20:23:32.255Z,10.90
2019-02-28T20:26:02.747Z,10.55
2019-02-28T20:28:34.260Z,9.90
2019-02-28T20:31:05.691Z,10.95
2019-02-28T20:33:36.090Z,9.83
2019-02-28T20:36:06.600Z,10.05
2019-02-28T20:38:37.311Z,9.78
2019-02-28T20:41:07.815Z,9.75
2019-02-28T20:43:38.321Z,10.00
2019-02-28T20:46:09.022Z,8.88
2019-02-28T20:48:39.400Z,9.58
2019-02-28T20:51:10.119Z,9.70
2019-02-28T20:53:40.496Z,9.63
2019-02-28T20:56:11.081Z,9.33
2019-02-28T20:58:41.605Z,9.25
2019-02-28T21:01:12.052Z,9.03
2019-02-28T21:03:43.282Z,10.18
2019-02-28T21:06:13.703Z,9.55
2019-02-28T21:08:44.190Z,9.85
2019-02-28T21:11:14.688Z,8.90
2019-02-28T21:13:45.096Z,9.28
2019-02-28T21:16:17.192Z,9.10
2019-02-28T21:18:47.942Z,9.20
2019-02-28T21:21:18.732Z,8.45
2019-02-28T21:23:51.776Z,8.83
2019-02-28T21:26:29.589Z,9.15
2019-02-28T21:29:00.151Z,9.65
2019-02-28T21:31:30.600Z,8.48
2019-02-28T21:34:01.092Z,8.63
2019-02-28T21:36:31.788Z,9.60
2019-02-28T21:39:02.229Z,9.35
2019-02-28T21:41:34.300Z,10.95
2019-02-28T21:44:05.007Z,10.63
2019-02-28T21:46:35.483Z,9.98
2019-02-28T21:49:05.924Z,10.93
2019-02-28T21:51:36.420Z,9.63
2019-02-28T21:54:07.905Z,10.60
2019-02-28T21:56:38.328Z,10.35
2019-02-28T21:59:08.761Z,10.50
2019-02-28T22:01:39.189Z,11.03
2019-02-28T22:04:09.555Z,11.80
2019-02-28T22:06:40.005Z,11.80
2019-02-28T22:09:10.523Z,11.25
2019-02-28T22:11:41.205Z,12.25
2019-02-28T22:14:11.567Z,12.00
2019-02-28T22:16:43.461Z,12.00
2019-02-28T22:19:13.853Z,11.97
2019-02-28T22:21:46.248Z,12.25
2019-02-28T22:24:17.846Z,11.03
2019-02-28T22:26:50.117Z,12.28
2019-02-28T22:29:20.549Z,11.75
2019-02-28T22:32:13.911Z,11.95
2019-02-28T22:35:00.229Z,11.97
2019-02-28T22:37:30.754Z,11.75
2019-02-28T22:40:08.663Z,12.98
2019-02-28T22:42:39.157Z,12.68
2019-02-28T22:45:09.580Z,12.98
2019-02-28T22:47:40.041Z,12.55
2019-02-28T22:50:11.357Z,13.03
2019-02-28T22:52:41.710Z,13.03
2019-02-28T22:55:12.355Z,13.55
2019-02-28T22:57:43.758Z,14.35
2019-02-28T23:00:29.340Z,13.83
2019-02-28T23:03:01.436Z,14.03
2019-02-28T23:05:31.905Z,14.10
2019-02-28T23:08:02.297Z,15.63
2019-02-28T23:10:32.882Z,15.83
2019-02-28T23:13:04.676Z,14.78
2019-02-28T23:15:35.381Z,15.30
2019-02-28T23:18:07.114Z,17.00
2019-02-28T23:20:37.478Z,15.90
2019-02-28T23:23:08.226Z,15.32
2019-02-28T23:25:38.680Z,15.32
2019-02-28T23:28:12.111Z,14.93
2019-02-28T23:31:40.276Z,16.42
2019-02-28T23:34:16.718Z,15.40
2019-02-28T23:36:47.178Z,15.18
2019-02-28T23:39:17.691Z,14.95
2019-02-28T23:41:48.149Z,14.83
2019-02-28T23:44:18.555Z,14.63
2019-02-28T23:46:49.230Z,15.50
2019-02-28T23:49:19.671Z,15.88
2019-02-28T23:51:50.410Z,14.85
2019-02-28T23:54:21.183Z,17.07
2019-02-28T23:56:51.580Z,17.17
2019-02-28T23:59:22.583Z,16.95
